»·PEaware :: UPS18 KPDX-KSEA

UPS18 :: KPDX-KSEA

FLIGHT INFORMATION

Flight Status: Arrived
Operator:
United Parcel Service
More flights by this operator :: More flights under this callsign
Pilot: Erik S. (14620)
Aircraft: BOEING 757-200
(B752)
More flights by this aircraft type
Origin: KPDX Portland Intl
United States
Destination: KSEA Seattle-Tacoma Intl
United States
More flights between these airports :: More routes between these airports
Route: COUGA KRIEG HAWKZ7
File this flight plan on PilotEdge
Remarks:
Altitude:
(Current/Filed)
16,000ft
Speed:
(Current/Filed)
368kts
Departed: 30-Aug-19 09:27 PM
Arrived: 30-Aug-19 09:58 PM
Distance/Time
Traveled:
113nm/0:30
Distance/Time
To Go:
Arrived

Flight Plot

Page will automatically refresh every two minutes.

Flight plan parsing failed; only flown route is shown


Map Options




Map Legend


Flown Route
Filed Route
Departure Airport
Arrival Airport
Navaid (VOR, NDB)
Fix

Horizontal Profiles

Position Reports

Time Latitude Longitude Heading Altitude Ground
Speed
30-Aug-19 21:10 45.583931 -122.609376 134 35ft 0kts
30-Aug-19 21:11 45.583931 -122.609376 134 35ft 0kts
30-Aug-19 21:12 45.583931 -122.609376 134 35ft 0kts
30-Aug-19 21:13 45.583931 -122.609376 134 35ft 0kts
30-Aug-19 21:14 45.583931 -122.609376 134 35ft 0kts
30-Aug-19 21:15 45.583931 -122.609376 134 34ft 0kts
30-Aug-19 21:16 45.583931 -122.609376 134 34ft 0kts
30-Aug-19 21:17 45.583931 -122.609376 134 34ft 0kts
30-Aug-19 21:18 45.583931 -122.609376 134 34ft 0kts
30-Aug-19 21:19 45.583931 -122.609376 134 34ft 0kts
30-Aug-19 21:20 45.584272 -122.610015 90 34ft 2kts
30-Aug-19 21:21 45.584140 -122.610424 43 34ft 0kts
30-Aug-19 21:22 45.584142 -122.610421 43 34ft 0kts
30-Aug-19 21:23 45.585673 -122.608624 353 34ft 7kts
30-Aug-19 21:24 45.589764 -122.611275 277 34ft 26kts
30-Aug-19 21:26 45.592520 -122.620812 298 34ft 29kts
30-Aug-19 21:27 45.589887 -122.607912 118 35ft 137kts
30-Aug-19 21:28 45.565801 -122.544528 117 1469ft 217kts
30-Aug-19 21:29 45.534838 -122.461140 117 2858ft 251kts
30-Aug-19 21:30 45.556463 -122.380634 7 5206ft 266kts
30-Aug-19 21:31 45.617061 -122.431754 330 7696ft 270kts
30-Aug-19 21:32 45.690836 -122.463295 337 10072ft 284kts
30-Aug-19 21:33 45.776962 -122.508367 336 10728ft 368kts
30-Aug-19 21:34 45.874813 -122.560561 336 13310ft 384kts
30-Aug-19 21:35 45.976851 -122.615324 335 15632ft 399kts
30-Aug-19 21:36 46.087610 -122.673694 341 16426ft 446kts
30-Aug-19 21:37 46.196033 -122.697660 349 16211ft 429kts
30-Aug-19 21:38 46.310855 -122.720285 350 16022ft 403kts
30-Aug-19 21:39 46.422923 -122.725834 355 16026ft 392kts
30-Aug-19 21:40 46.524987 -122.729545 355 16028ft 358kts
30-Aug-19 21:41 46.624511 -122.733147 355 15675ft 357kts
30-Aug-19 21:42 46.722784 -122.736716 355 14499ft 349kts
30-Aug-19 21:43 46.813958 -122.703403 38 13335ft 347kts
30-Aug-19 21:43 46.874139 -122.634361 37 12895ft 324kts
30-Aug-19 21:45 46.960418 -122.553364 15 12032ft 317kts
30-Aug-19 21:46 47.044458 -122.515551 14 11514ft 315kts
30-Aug-19 21:46 47.114021 -122.494133 5 10639ft 307kts
30-Aug-19 21:48 47.209487 -122.477125 4 10004ft 290kts
30-Aug-19 21:48 47.272582 -122.467515 4 9034ft 280kts
30-Aug-19 21:50 47.360935 -122.455182 358 7573ft 271kts
30-Aug-19 21:50 47.422371 -122.455336 359 6652ft 263kts
30-Aug-19 21:51 47.493259 -122.455360 359 5564ft 248kts
30-Aug-19 21:52 47.550765 -122.433850 54 4248ft 194kts
30-Aug-19 21:53 47.553131 -122.359197 104 2658ft 172kts
30-Aug-19 21:54 47.525888 -122.313521 157 1830ft 148kts
30-Aug-19 21:55 47.484688 -122.307572 181 939ft 145kts
30-Aug-19 21:56 47.448298 -122.307881 180 444ft 69kts
30-Aug-19 21:57 47.449635 -122.306169 20 444ft 19kts
30-Aug-19 21:58 47.455767 -122.304988 0 444ft 29kts
30-Aug-19 21:59 47.461945 -122.302995 45 444ft 11kts
30-Aug-19 22:00 47.462612 -122.302823 0 444ft 0kts
30-Aug-19 22:01 47.462612 -122.302823 0 444ft 0kts
30-Aug-19 22:02 47.462612 -122.302823 0 444ft 0kts
30-Aug-19 22:03 47.462612 -122.302823 0 444ft 0kts
30-Aug-19 22:04 47.462612 -122.302823 0 444ft 0kts
30-Aug-19 22:05 47.462612 -122.302823 0 444ft 0kts
30-Aug-19 22:06 47.462612 -122.302823 0 444ft 0kts
30-Aug-19 22:07 47.462612 -122.302823 0 444ft 0kts
30-Aug-19 22:08 47.462612 -122.302823 0 444ft 0kts
30-Aug-19 22:09 47.462612 -122.302823 0 444ft 0kts
30-Aug-19 22:10 47.462612 -122.302823 0 444ft 0kts
30-Aug-19 22:11 47.462612 -122.302823 0 444ft 0kts

Navigation Log

Ident Type
Flight plan parsing failed, navigation log unavailable